sensor_id;sensor_type;location;lat;lon;timestamp;P1;durP1;ratioP1;P2;durP2;ratioP2
60336;SDS011;46978;50.288;28.624;2023-01-23T00:00:08;57.55;;;13.64;;
60336;SDS011;46978;50.288;28.624;2023-01-23T00:04:36;58.28;;;13.36;;
60336;SDS011;46978;50.288;28.624;2023-01-23T00:05:37;74.49;;;14.19;;
60336;SDS011;46978;50.288;28.624;2023-01-23T00:06:39;45.74;;;12.37;;
60336;SDS011;46978;50.288;28.624;2023-01-23T00:07:41;52.14;;;12.57;;
60336;SDS011;46978;50.288;28.624;2023-01-23T00:16:56;22.99;;;8.18;;
60336;SDS011;46978;50.288;28.624;2023-01-23T00:20:22;55.81;;;10.70;;
60336;SDS011;46978;50.288;28.624;2023-01-23T00:21:25;46.18;;;11.25;;
60336;SDS011;46978;50.288;28.624;2023-01-23T00:28:02;20.39;;;7.83;;
60336;SDS011;46978;50.288;28.624;2023-01-23T00:32:05;37.44;;;10.76;;
60336;SDS011;46978;50.288;28.624;2023-01-23T00:33:07;28.00;;;9.06;;
60336;SDS011;46978;50.288;28.624;2023-01-23T00:40:18;37.40;;;10.29;;
60336;SDS011;46978;50.288;28.624;2023-01-23T00:46:06;31.56;;;10.35;;
60336;SDS011;46978;50.288;28.624;2023-01-23T00:47:08;32.99;;;10.56;;
60336;SDS011;46978;50.288;28.624;2023-01-23T00:53:22;24.74;;;8.69;;
60336;SDS011;46978;50.288;28.624;2023-01-23T00:59:06;37.56;;;9.92;;
60336;SDS011;46978;50.288;28.624;2023-01-23T01:01:30;31.44;;;9.53;;
60336;SDS011;46978;50.288;28.624;2023-01-23T01:02:32;35.82;;;10.63;;
60336;SDS011;46978;50.288;28.624;2023-01-23T01:03:34;19.82;;;6.92;;
60336;SDS011;46978;50.288;28.624;2023-01-23T01:04:36;46.97;;;12.19;;
60336;SDS011;46978;50.288;28.624;2023-01-23T01:05:38;33.00;;;10.54;;
60336;SDS011;46978;50.288;28.624;2023-01-23T01:08:25;32.30;;;11.63;;
60336;SDS011;46978;50.288;28.624;2023-01-23T01:09:27;41.81;;;12.47;;
60336;SDS011;46978;50.288;28.624;2023-01-23T01:10:29;30.35;;;12.16;;
60336;SDS011;46978;50.288;28.624;2023-01-23T01:11:32;39.85;;;10.59;;
60336;SDS011;46978;50.288;28.624;2023-01-23T01:12:34;31.04;;;10.94;;
60336;SDS011;46978;50.288;28.624;2023-01-23T01:15:15;28.44;;;10.56;;
60336;SDS011;46978;50.288;28.624;2023-01-23T01:19:56;32.37;;;9.37;;
60336;SDS011;46978;50.288;28.624;2023-01-23T01:27:06;23.33;;;10.13;;
60336;SDS011;46978;50.288;28.624;2023-01-23T01:32:20;23.49;;;7.64;;
60336;SDS011;46978;50.288;28.624;2023-01-23T01:35:17;41.56;;;8.37;;
60336;SDS011;46978;50.288;28.624;2023-01-23T01:36:20;43.75;;;10.64;;
60336;SDS011;46978;50.288;28.624;2023-01-23T01:37:23;39.33;;;11.24;;
60336;SDS011;46978;50.288;28.624;2023-01-23T01:38:25;45.93;;;11.43;;
60336;SDS011;46978;50.288;28.624;2023-01-23T01:39:27;39.69;;;11.57;;
60336;SDS011;46978;50.288;28.624;2023-01-23T01:40:31;33.78;;;10.85;;
60336;SDS011;46978;50.288;28.624;2023-01-23T01:41:33;45.36;;;12.03;;
60336;SDS011;46978;50.288;28.624;2023-01-23T01:42:39;36.37;;;11.17;;
60336;SDS011;46978;50.288;28.624;2023-01-23T01:43:43;54.50;;;12.92;;
60336;SDS011;46978;50.288;28.624;2023-01-23T01:44:59;49.19;;;14.05;;
60336;SDS011;46978;50.288;28.624;2023-01-23T01:47:08;58.61;;;12.18;;
60336;SDS011;46978;50.288;28.624;2023-01-23T01:52:30;36.22;;;10.33;;
60336;SDS011;46978;50.288;28.624;2023-01-23T01:53:32;54.94;;;11.12;;
60336;SDS011;46978;50.288;28.624;2023-01-23T01:54:37;42.54;;;11.26;;
60336;SDS011;46978;50.288;28.624;2023-01-23T01:55:40;41.74;;;11.48;;
60336;SDS011;46978;50.288;28.624;2023-01-23T01:56:46;52.29;;;12.45;;
60336;SDS011;46978;50.288;28.624;2023-01-23T01:57:48;54.08;;;13.41;;
60336;SDS011;46978;50.288;28.624;2023-01-23T01:58:50;31.64;;;11.29;;
60336;SDS011;46978;50.288;28.624;2023-01-23T02:00:16;27.32;;;11.34;;
60336;SDS011;46978;50.288;28.624;2023-01-23T02:01:02;46.40;;;12.02;;
60336;SDS011;46978;50.288;28.624;2023-01-23T02:02:21;44.99;;;12.15;;
60336;SDS011;46978;50.288;28.624;2023-01-23T02:03:22;37.27;;;12.18;;
60336;SDS011;46978;50.288;28.624;2023-01-23T02:04:25;57.43;;;14.60;;
60336;SDS011;46978;50.288;28.624;2023-01-23T02:05:28;54.95;;;13.85;;
60336;SDS011;46978;50.288;28.624;2023-01-23T02:06:32;51.10;;;14.16;;
60336;SDS011;46978;50.288;28.624;2023-01-23T02:07:36;51.44;;;14.51;;
60336;SDS011;46978;50.288;28.624;2023-01-23T02:09:00;45.40;;;13.50;;
60336;SDS011;46978;50.288;28.624;2023-01-23T02:10:12;44.69;;;11.80;;
60336;SDS011;46978;50.288;28.624;2023-01-23T02:11:14;56.46;;;13.63;;
60336;SDS011;46978;50.288;28.624;2023-01-23T02:12:16;72.41;;;15.79;;
60336;SDS011;46978;50.288;28.624;2023-01-23T02:14:32;47.56;;;12.16;;
60336;SDS011;46978;50.288;28.624;2023-01-23T02:15:34;42.42;;;12.61;;
60336;SDS011;46978;50.288;28.624;2023-01-23T02:16:36;32.71;;;11.92;;
60336;SDS011;46978;50.288;28.624;2023-01-23T02:17:39;27.69;;;11.17;;
60336;SDS011;46978;50.288;28.624;2023-01-23T02:18:41;31.98;;;9.59;;
60336;SDS011;46978;50.288;28.624;2023-01-23T02:20:51;39.98;;;10.32;;
60336;SDS011;46978;50.288;28.624;2023-01-23T02:21:57;57.13;;;11.88;;
60336;SDS011;46978;50.288;28.624;2023-01-23T02:24:24;36.27;;;9.40;;
60336;SDS011;46978;50.288;28.624;2023-01-23T02:26:47;59.14;;;11.30;;
60336;SDS011;46978;50.288;28.624;2023-01-23T02:27:48;47.88;;;13.01;;
60336;SDS011;46978;50.288;28.624;2023-01-23T02:28:50;71.10;;;15.80;;
60336;SDS011;46978;50.288;28.624;2023-01-23T02:29:52;44.11;;;14.11;;
60336;SDS011;46978;50.288;28.624;2023-01-23T02:30:54;68.18;;;15.51;;
60336;SDS011;46978;50.288;28.624;2023-01-23T02:31:56;80.13;;;16.00;;
60336;SDS011;46978;50.288;28.624;2023-01-23T02:34:22;84.44;;;13.59;;
60336;SDS011;46978;50.288;28.624;2023-01-23T02:35:25;70.79;;;11.92;;
60336;SDS011;46978;50.288;28.624;2023-01-23T02:36:31;41.56;;;11.99;;
60336;SDS011;46978;50.288;28.624;2023-01-23T02:37:34;73.30;;;13.65;;
60336;SDS011;46978;50.288;28.624;2023-01-23T02:38:44;36.72;;;10.81;;
60336;SDS011;46978;50.288;28.624;2023-01-23T02:39:51;29.94;;;10.52;;
60336;SDS011;46978;50.288;28.624;2023-01-23T02:40:53;36.07;;;11.21;;
60336;SDS011;46978;50.288;28.624;2023-01-23T02:41:57;35.24;;;10.82;;
60336;SDS011;46978;50.288;28.624;2023-01-23T02:43:04;35.33;;;10.89;;
60336;SDS011;46978;50.288;28.624;2023-01-23T02:44:19;42.14;;;12.26;;
60336;SDS011;46978;50.288;28.624;2023-01-23T02:45:22;51.62;;;12.66;;
60336;SDS011;46978;50.288;28.624;2023-01-23T02:46:24;59.53;;;12.63;;
60336;SDS011;46978;50.288;28.624;2023-01-23T02:47:26;65.65;;;12.71;;
60336;SDS011;46978;50.288;28.624;2023-01-23T02:48:28;47.36;;;11.30;;
60336;SDS011;46978;50.288;28.624;2023-01-23T02:49:30;41.13;;;11.85;;
60336;SDS011;46978;50.288;28.624;2023-01-23T02:50:32;51.85;;;10.54;;
60336;SDS011;46978;50.288;28.624;2023-01-23T02:51:34;42.58;;;11.62;;
60336;SDS011;46978;50.288;28.624;2023-01-23T02:52:36;51.42;;;12.42;;
60336;SDS011;46978;50.288;28.624;2023-01-23T02:53:38;56.94;;;11.07;;
60336;SDS011;46978;50.288;28.624;2023-01-23T02:54:40;47.09;;;12.69;;
60336;SDS011;46978;50.288;28.624;2023-01-23T02:55:42;47.98;;;12.87;;
60336;SDS011;46978;50.288;28.624;2023-01-23T02:56:44;69.81;;;13.59;;
60336;SDS011;46978;50.288;28.624;2023-01-23T02:57:46;58.88;;;11.27;;
60336;SDS011;46978;50.288;28.624;2023-01-23T02:58:48;46.89;;;12.41;;
60336;SDS011;46978;50.288;28.624;2023-01-23T02:59:50;54.63;;;11.73;;
60336;SDS011;46978;50.288;28.624;2023-01-23T03:00:52;44.17;;;10.50;;
60336;SDS011;46978;50.288;28.624;2023-01-23T03:01:53;32.89;;;10.19;;
60336;SDS011;46978;50.288;28.624;2023-01-23T03:04:17;23.71;;;8.99;;
60336;SDS011;46978;50.288;28.624;2023-01-23T03:05:18;46.35;;;11.25;;
60336;SDS011;46978;50.288;28.624;2023-01-23T03:06:20;54.00;;;12.07;;
60336;SDS011;46978;50.288;28.624;2023-01-23T03:07:22;66.53;;;12.30;;
60336;SDS011;46978;50.288;28.624;2023-01-23T03:08:24;48.51;;;12.00;;
60336;SDS011;46978;50.288;28.624;2023-01-23T03:09:25;57.88;;;12.78;;
60336;SDS011;46978;50.288;28.624;2023-01-23T03:10:28;47.98;;;12.02;;
60336;SDS011;46978;50.288;28.624;2023-01-23T03:11:29;50.09;;;12.26;;
60336;SDS011;46978;50.288;28.624;2023-01-23T03:12:31;66.62;;;12.93;;
60336;SDS011;46978;50.288;28.624;2023-01-23T03:13:33;68.81;;;12.56;;
60336;SDS011;46978;50.288;28.624;2023-01-23T03:14:35;46.41;;;12.07;;
60336;SDS011;46978;50.288;28.624;2023-01-23T03:15:36;45.16;;;11.11;;
60336;SDS011;46978;50.288;28.624;2023-01-23T03:16:39;54.03;;;11.83;;
60336;SDS011;46978;50.288;28.624;2023-01-23T03:17:41;39.52;;;10.47;;
60336;SDS011;46978;50.288;28.624;2023-01-23T03:18:42;62.78;;;11.28;;
60336;SDS011;46978;50.288;28.624;2023-01-23T03:19:44;54.85;;;12.37;;
60336;SDS011;46978;50.288;28.624;2023-01-23T03:20:46;54.13;;;11.73;;
60336;SDS011;46978;50.288;28.624;2023-01-23T03:21:48;50.36;;;11.28;;
60336;SDS011;46978;50.288;28.624;2023-01-23T03:22:50;53.94;;;11.31;;
60336;SDS011;46978;50.288;28.624;2023-01-23T03:23:52;43.61;;;11.20;;
60336;SDS011;46978;50.288;28.624;2023-01-23T03:24:53;51.58;;;11.91;;
60336;SDS011;46978;50.288;28.624;2023-01-23T03:25:55;44.69;;;11.38;;
60336;SDS011;46978;50.288;28.624;2023-01-23T03:26:57;62.68;;;11.15;;
60336;SDS011;46978;50.288;28.624;2023-01-23T03:27:59;47.49;;;10.46;;
60336;SDS011;46978;50.288;28.624;2023-01-23T03:29:00;47.72;;;10.45;;
60336;SDS011;46978;50.288;28.624;2023-01-23T03:30:03;37.34;;;9.11;;
60336;SDS011;46978;50.288;28.624;2023-01-23T03:31:05;34.89;;;10.82;;
60336;SDS011;46978;50.288;28.624;2023-01-23T03:32:07;31.01;;;8.98;;
60336;SDS011;46978;50.288;28.624;2023-01-23T03:33:10;29.22;;;8.48;;
60336;SDS011;46978;50.288;28.624;2023-01-23T03:34:11;24.25;;;8.76;;
60336;SDS011;46978;50.288;28.624;2023-01-23T03:35:13;23.52;;;8.49;;
60336;SDS011;46978;50.288;28.624;2023-01-23T03:36:17;29.79;;;8.73;;
60336;SDS011;46978;50.288;28.624;2023-01-23T03:37:19;33.09;;;8.95;;
60336;SDS011;46978;50.288;28.624;2023-01-23T03:38:20;36.56;;;9.02;;
60336;SDS011;46978;50.288;28.624;2023-01-23T03:39:22;32.96;;;9.03;;
60336;SDS011;46978;50.288;28.624;2023-01-23T03:40:24;28.17;;;9.33;;
60336;SDS011;46978;50.288;28.624;2023-01-23T03:41:26;30.06;;;7.04;;
60336;SDS011;46978;50.288;28.624;2023-01-23T03:42:29;28.25;;;8.11;;
60336;SDS011;46978;50.288;28.624;2023-01-23T03:43:35;34.24;;;7.14;;
60336;SDS011;46978;50.288;28.624;2023-01-23T03:44:37;44.39;;;9.54;;
60336;SDS011;46978;50.288;28.624;2023-01-23T03:45:39;48.44;;;8.50;;
60336;SDS011;46978;50.288;28.624;2023-01-23T03:46:40;36.21;;;8.57;;
60336;SDS011;46978;50.288;28.624;2023-01-23T03:47:42;37.71;;;8.39;;
60336;SDS011;46978;50.288;28.624;2023-01-23T03:48:44;35.99;;;8.29;;
60336;SDS011;46978;50.288;28.624;2023-01-23T03:49:45;50.26;;;9.94;;
60336;SDS011;46978;50.288;28.624;2023-01-23T03:50:47;67.71;;;9.13;;
60336;SDS011;46978;50.288;28.624;2023-01-23T03:51:49;54.19;;;10.30;;
60336;SDS011;46978;50.288;28.624;2023-01-23T03:52:51;48.92;;;9.27;;
60336;SDS011;46978;50.288;28.624;2023-01-23T03:53:52;37.79;;;8.11;;
60336;SDS011;46978;50.288;28.624;2023-01-23T03:54:54;38.80;;;9.50;;
60336;SDS011;46978;50.288;28.624;2023-01-23T03:55:56;49.59;;;9.95;;
60336;SDS011;46978;50.288;28.624;2023-01-23T03:56:58;31.99;;;8.77;;
60336;SDS011;46978;50.288;28.624;2023-01-23T03:57:59;37.71;;;9.54;;
60336;SDS011;46978;50.288;28.624;2023-01-23T03:59:01;45.03;;;10.69;;
60336;SDS011;46978;50.288;28.624;2023-01-23T04:00:03;45.94;;;11.56;;
60336;SDS011;46978;50.288;28.624;2023-01-23T04:01:06;37.53;;;10.82;;
60336;SDS011;46978;50.288;28.624;2023-01-23T04:02:09;30.59;;;10.26;;
60336;SDS011;46978;50.288;28.624;2023-01-23T04:03:11;37.23;;;12.00;;
60336;SDS011;46978;50.288;28.624;2023-01-23T04:04:13;32.32;;;9.77;;
60336;SDS011;46978;50.288;28.624;2023-01-23T04:05:14;34.84;;;11.52;;
60336;SDS011;46978;50.288;28.624;2023-01-23T04:06:17;44.89;;;12.27;;
60336;SDS011;46978;50.288;28.624;2023-01-23T04:07:19;30.96;;;9.75;;
60336;SDS011;46978;50.288;28.624;2023-01-23T04:08:21;31.41;;;9.04;;
60336;SDS011;46978;50.288;28.624;2023-01-23T04:09:22;28.76;;;11.21;;
60336;SDS011;46978;50.288;28.624;2023-01-23T04:10:24;28.10;;;8.96;;
60336;SDS011;46978;50.288;28.624;2023-01-23T04:11:26;24.49;;;7.67;;
60336;SDS011;46978;50.288;28.624;2023-01-23T04:12:28;22.99;;;8.31;;
60336;SDS011;46978;50.288;28.624;2023-01-23T04:13:29;26.71;;;8.35;;
60336;SDS011;46978;50.288;28.624;2023-01-23T04:14:32;28.14;;;8.58;;
60336;SDS011;46978;50.288;28.624;2023-01-23T04:15:33;24.91;;;8.90;;
60336;SDS011;46978;50.288;28.624;2023-01-23T04:16:35;24.53;;;8.47;;
60336;SDS011;46978;50.288;28.624;2023-01-23T04:18:58;14.78;;;6.24;;
60336;SDS011;46978;50.288;28.624;2023-01-23T04:21:21;13.63;;;6.62;;
60336;SDS011;46978;50.288;28.624;2023-01-23T04:22:23;12.37;;;6.04;;
60336;SDS011;46978;50.288;28.624;2023-01-23T04:23:25;13.63;;;6.57;;
60336;SDS011;46978;50.288;28.624;2023-01-23T04:24:27;17.95;;;6.58;;
60336;SDS011;46978;50.288;28.624;2023-01-23T04:25:28;11.95;;;6.04;;
60336;SDS011;46978;50.288;28.624;2023-01-23T04:26:30;14.59;;;5.91;;
60336;SDS011;46978;50.288;28.624;2023-01-23T04:27:32;8.79;;;4.40;;
60336;SDS011;46978;50.288;28.624;2023-01-23T04:28:34;14.03;;;5.17;;
60336;SDS011;46978;50.288;28.624;2023-01-23T04:29:36;11.68;;;5.54;;
60336;SDS011;46978;50.288;28.624;2023-01-23T04:30:38;15.37;;;5.77;;
60336;SDS011;46978;50.288;28.624;2023-01-23T04:31:39;16.01;;;5.33;;
60336;SDS011;46978;50.288;28.624;2023-01-23T04:32:41;18.71;;;6.69;;
60336;SDS011;46978;50.288;28.624;2023-01-23T04:33:43;15.95;;;6.36;;
60336;SDS011;46978;50.288;28.624;2023-01-23T04:34:44;16.51;;;6.44;;
60336;SDS011;46978;50.288;28.624;2023-01-23T04:35:57;11.93;;;5.90;;
60336;SDS011;46978;50.288;28.624;2023-01-23T04:36:57;11.64;;;5.36;;
60336;SDS011;46978;50.288;28.624;2023-01-23T04:37:58;11.29;;;5.75;;
60336;SDS011;46978;50.288;28.624;2023-01-23T04:39:00;12.41;;;5.81;;
60336;SDS011;46978;50.288;28.624;2023-01-23T04:40:03;13.07;;;5.94;;
60336;SDS011;46978;50.288;28.624;2023-01-23T04:41:05;11.51;;;6.37;;
60336;SDS011;46978;50.288;28.624;2023-01-23T04:42:06;13.84;;;6.09;;
60336;SDS011;46978;50.288;28.624;2023-01-23T04:43:09;16.50;;;6.97;;
60336;SDS011;46978;50.288;28.624;2023-01-23T04:44:10;15.30;;;6.80;;
60336;SDS011;46978;50.288;28.624;2023-01-23T04:45:12;19.75;;;6.94;;
60336;SDS011;46978;50.288;28.624;2023-01-23T04:46:14;19.58;;;7.97;;
60336;SDS011;46978;50.288;28.624;2023-01-23T04:47:16;16.53;;;7.40;;
60336;SDS011;46978;50.288;28.624;2023-01-23T04:48:17;18.38;;;8.14;;
60336;SDS011;46978;50.288;28.624;2023-01-23T04:49:20;17.87;;;8.14;;
60336;SDS011;46978;50.288;28.624;2023-01-23T04:50:23;16.33;;;7.50;;
60336;SDS011;46978;50.288;28.624;2023-01-23T04:51:25;16.52;;;7.58;;
60336;SDS011;46978;50.288;28.624;2023-01-23T04:52:26;19.27;;;7.82;;
60336;SDS011;46978;50.288;28.624;2023-01-23T04:53:28;14.79;;;6.77;;
60336;SDS011;46978;50.288;28.624;2023-01-23T04:54:30;16.10;;;7.39;;
60336;SDS011;46978;50.288;28.624;2023-01-23T04:55:31;19.94;;;7.46;;
60336;SDS011;46978;50.288;28.624;2023-01-23T04:56:33;13.84;;;5.86;;
60336;SDS011;46978;50.288;28.624;2023-01-23T04:57:35;14.59;;;5.74;;
60336;SDS011;46978;50.288;28.624;2023-01-23T04:58:36;17.60;;;6.61;;
60336;SDS011;46978;50.288;28.624;2023-01-23T04:59:38;15.70;;;6.62;;
60336;SDS011;46978;50.288;28.624;2023-01-23T05:00:40;20.16;;;6.70;;
60336;SDS011;46978;50.288;28.624;2023-01-23T05:01:41;18.20;;;7.24;;
60336;SDS011;46978;50.288;28.624;2023-01-23T05:02:47;21.35;;;6.62;;
60336;SDS011;46978;50.288;28.624;2023-01-23T05:03:50;15.63;;;6.72;;
60336;SDS011;46978;50.288;28.624;2023-01-23T05:04:53;16.94;;;7.60;;
60336;SDS011;46978;50.288;28.624;2023-01-23T05:05:54;25.24;;;8.45;;
60336;SDS011;46978;50.288;28.624;2023-01-23T05:06:56;16.54;;;7.46;;
60336;SDS011;46978;50.288;28.624;2023-01-23T05:07:58;23.00;;;8.19;;
60336;SDS011;46978;50.288;28.624;2023-01-23T05:08:59;17.01;;;8.24;;
60336;SDS011;46978;50.288;28.624;2023-01-23T05:10:01;19.87;;;7.59;;
60336;SDS011;46978;50.288;28.624;2023-01-23T05:11:04;16.30;;;7.45;;
60336;SDS011;46978;50.288;28.624;2023-01-23T05:12:05;17.73;;;7.56;;
60336;SDS011;46978;50.288;28.624;2023-01-23T05:13:07;19.92;;;7.78;;
60336;SDS011;46978;50.288;28.624;2023-01-23T05:14:09;23.75;;;8.19;;
60336;SDS011;46978;50.288;28.624;2023-01-23T05:15:10;17.76;;;7.82;;
60336;SDS011;46978;50.288;28.624;2023-01-23T05:16:12;18.75;;;7.33;;
60336;SDS011;46978;50.288;28.624;2023-01-23T05:17:14;20.85;;;8.72;;
60336;SDS011;46978;50.288;28.624;2023-01-23T05:18:16;14.35;;;7.46;;
60336;SDS011;46978;50.288;28.624;2023-01-23T05:19:17;18.99;;;7.67;;
60336;SDS011;46978;50.288;28.624;2023-01-23T05:20:20;21.63;;;7.51;;
60336;SDS011;46978;50.288;28.624;2023-01-23T05:21:22;17.87;;;7.96;;
60336;SDS011;46978;50.288;28.624;2023-01-23T05:22:23;20.57;;;8.09;;
60336;SDS011;46978;50.288;28.624;2023-01-23T05:23:25;17.93;;;6.77;;
60336;SDS011;46978;50.288;28.624;2023-01-23T05:24:27;22.93;;;7.59;;
60336;SDS011;46978;50.288;28.624;2023-01-23T05:25:28;22.50;;;8.64;;
60336;SDS011;46978;50.288;28.624;2023-01-23T05:26:30;21.95;;;9.18;;
60336;SDS011;46978;50.288;28.624;2023-01-23T05:27:32;23.43;;;8.87;;
60336;SDS011;46978;50.288;28.624;2023-01-23T05:28:34;23.68;;;8.76;;
60336;SDS011;46978;50.288;28.624;2023-01-23T05:29:35;22.56;;;9.36;;
60336;SDS011;46978;50.288;28.624;2023-01-23T05:30:37;22.00;;;8.88;;
60336;SDS011;46978;50.288;28.624;2023-01-23T05:31:39;21.21;;;6.81;;
60336;SDS011;46978;50.288;28.624;2023-01-23T05:32:40;17.86;;;7.01;;
60336;SDS011;46978;50.288;28.624;2023-01-23T05:33:42;19.08;;;8.02;;
60336;SDS011;46978;50.288;28.624;2023-01-23T05:34:44;18.19;;;7.79;;
60336;SDS011;46978;50.288;28.624;2023-01-23T05:35:46;17.12;;;7.80;;
60336;SDS011;46978;50.288;28.624;2023-01-23T05:38:05;19.97;;;8.19;;
60336;SDS011;46978;50.288;28.624;2023-01-23T05:39:07;20.26;;;7.47;;
60336;SDS011;46978;50.288;28.624;2023-01-23T05:42:42;17.37;;;7.97;;
60336;SDS011;46978;50.288;28.624;2023-01-23T05:43:43;16.52;;;7.91;;
60336;SDS011;46978;50.288;28.624;2023-01-23T05:44:45;14.92;;;7.64;;
60336;SDS011;46978;50.288;28.624;2023-01-23T05:45:47;15.16;;;7.36;;
60336;SDS011;46978;50.288;28.624;2023-01-23T05:46:49;15.66;;;7.14;;
60336;SDS011;46978;50.288;28.624;2023-01-23T05:47:51;14.88;;;7.44;;
60336;SDS011;46978;50.288;28.624;2023-01-23T05:48:52;14.55;;;6.86;;
60336;SDS011;46978;50.288;28.624;2023-01-23T05:49:54;12.71;;;6.40;;
60336;SDS011;46978;50.288;28.624;2023-01-23T05:50:56;19.36;;;9.49;;
60336;SDS011;46978;50.288;28.624;2023-01-23T05:51:58;19.91;;;10.23;;
60336;SDS011;46978;50.288;28.624;2023-01-23T05:52:59;21.07;;;11.16;;
60336;SDS011;46978;50.288;28.624;2023-01-23T05:54:01;22.10;;;11.09;;
60336;SDS011;46978;50.288;28.624;2023-01-23T05:55:03;19.54;;;9.67;;
60336;SDS011;46978;50.288;28.624;2023-01-23T05:56:06;17.45;;;7.91;;
60336;SDS011;46978;50.288;28.624;2023-01-23T05:57:09;17.76;;;9.44;;
60336;SDS011;46978;50.288;28.624;2023-01-23T05:58:11;36.93;;;14.75;;
60336;SDS011;46978;50.288;28.624;2023-01-23T05:59:13;40.55;;;18.11;;
60336;SDS011;46978;50.288;28.624;2023-01-23T06:00:15;54.88;;;19.71;;
60336;SDS011;46978;50.288;28.624;2023-01-23T06:01:18;57.24;;;21.78;;
60336;SDS011;46978;50.288;28.624;2023-01-23T06:02:21;63.49;;;22.83;;
60336;SDS011;46978;50.288;28.624;2023-01-23T06:03:22;42.59;;;16.91;;
60336;SDS011;46978;50.288;28.624;2023-01-23T06:04:24;27.39;;;12.22;;
60336;SDS011;46978;50.288;28.624;2023-01-23T06:05:26;28.15;;;11.94;;
60336;SDS011;46978;50.288;28.624;2023-01-23T06:06:28;26.61;;;12.63;;
60336;SDS011;46978;50.288;28.624;2023-01-23T06:07:29;26.16;;;12.47;;
60336;SDS011;46978;50.288;28.624;2023-01-23T06:08:31;26.31;;;12.32;;
60336;SDS011;46978;50.288;28.624;2023-01-23T06:09:33;28.04;;;12.67;;
60336;SDS011;46978;50.288;28.624;2023-01-23T06:10:35;28.86;;;14.51;;
60336;SDS011;46978;50.288;28.624;2023-01-23T06:11:38;22.20;;;11.64;;
60336;SDS011;46978;50.288;28.624;2023-01-23T06:12:40;19.25;;;10.21;;
60336;SDS011;46978;50.288;28.624;2023-01-23T06:13:41;29.49;;;13.79;;
60336;SDS011;46978;50.288;28.624;2023-01-23T06:14:43;22.02;;;10.00;;
60336;SDS011;46978;50.288;28.624;2023-01-23T06:15:44;25.43;;;11.81;;
60336;SDS011;46978;50.288;28.624;2023-01-23T06:16:46;20.12;;;8.80;;
60336;SDS011;46978;50.288;28.624;2023-01-23T06:17:48;16.25;;;7.86;;
60336;SDS011;46978;50.288;28.624;2023-01-23T06:18:49;13.64;;;7.16;;
60336;SDS011;46978;50.288;28.624;2023-01-23T06:19:51;16.23;;;8.20;;
60336;SDS011;46978;50.288;28.624;2023-01-23T06:20:57;16.11;;;8.44;;
60336;SDS011;46978;50.288;28.624;2023-01-23T06:22:00;15.82;;;8.33;;
60336;SDS011;46978;50.288;28.624;2023-01-23T06:23:01;21.13;;;9.72;;
60336;SDS011;46978;50.288;28.624;2023-01-23T06:24:03;26.23;;;11.66;;
60336;SDS011;46978;50.288;28.624;2023-01-23T06:25:06;20.59;;;10.05;;
60336;SDS011;46978;50.288;28.624;2023-01-23T06:26:09;22.14;;;10.66;;
60336;SDS011;46978;50.288;28.624;2023-01-23T06:27:10;17.63;;;8.83;;
60336;SDS011;46978;50.288;28.624;2023-01-23T06:28:12;21.74;;;9.99;;
60336;SDS011;46978;50.288;28.624;2023-01-23T06:29:13;19.89;;;10.83;;
60336;SDS011;46978;50.288;28.624;2023-01-23T06:30:15;23.09;;;11.55;;
60336;SDS011;46978;50.288;28.624;2023-01-23T06:31:18;26.31;;;12.48;;
60336;SDS011;46978;50.288;28.624;2023-01-23T06:32:20;21.91;;;11.76;;
60336;SDS011;46978;50.288;28.624;2023-01-23T06:33:22;24.52;;;12.31;;
60336;SDS011;46978;50.288;28.624;2023-01-23T06:34:23;28.29;;;13.96;;
60336;SDS011;46978;50.288;28.624;2023-01-23T06:35:25;21.44;;;11.61;;
60336;SDS011;46978;50.288;28.624;2023-01-23T06:36:27;19.55;;;9.95;;
60336;SDS011;46978;50.288;28.624;2023-01-23T06:37:29;15.01;;;8.01;;
60336;SDS011;46978;50.288;28.624;2023-01-23T06:38:30;14.08;;;7.25;;
60336;SDS011;46978;50.288;28.624;2023-01-23T06:39:33;13.76;;;7.48;;
60336;SDS011;46978;50.288;28.624;2023-01-23T06:40:34;14.19;;;7.60;;
60336;SDS011;46978;50.288;28.624;2023-01-23T06:41:36;17.54;;;8.52;;
60336;SDS011;46978;50.288;28.624;2023-01-23T06:42:38;16.96;;;9.89;;
60336;SDS011;46978;50.288;28.624;2023-01-23T06:43:41;17.43;;;9.54;;
60336;SDS011;46978;50.288;28.624;2023-01-23T06:44:42;16.66;;;9.49;;
60336;SDS011;46978;50.288;28.624;2023-01-23T06:45:44;16.26;;;8.47;;
60336;SDS011;46978;50.288;28.624;2023-01-23T06:46:47;15.79;;;8.42;;
60336;SDS011;46978;50.288;28.624;2023-01-23T06:47:50;17.21;;;8.87;;
60336;SDS011;46978;50.288;28.624;2023-01-23T06:48:53;15.11;;;8.33;;
60336;SDS011;46978;50.288;28.624;2023-01-23T06:49:54;15.62;;;8.45;;
60336;SDS011;46978;50.288;28.624;2023-01-23T06:50:58;18.10;;;9.51;;
60336;SDS011;46978;50.288;28.624;2023-01-23T06:52:00;21.37;;;10.46;;
60336;SDS011;46978;50.288;28.624;2023-01-23T06:53:02;25.66;;;11.03;;
60336;SDS011;46978;50.288;28.624;2023-01-23T06:54:03;23.29;;;12.31;;
60336;SDS011;46978;50.288;28.624;2023-01-23T06:55:06;18.63;;;10.15;;
60336;SDS011;46978;50.288;28.624;2023-01-23T06:56:09;19.82;;;10.55;;
60336;SDS011;46978;50.288;28.624;2023-01-23T06:57:11;19.44;;;10.44;;
60336;SDS011;46978;50.288;28.624;2023-01-23T06:58:13;26.87;;;13.61;;
60336;SDS011;46978;50.288;28.624;2023-01-23T06:59:15;36.08;;;17.31;;
60336;SDS011;46978;50.288;28.624;2023-01-23T07:00:17;29.25;;;14.79;;
60336;SDS011;46978;50.288;28.624;2023-01-23T07:01:20;31.89;;;16.43;;
60336;SDS011;46978;50.288;28.624;2023-01-23T07:02:21;35.17;;;17.69;;
60336;SDS011;46978;50.288;28.624;2023-01-23T07:03:23;38.06;;;18.62;;
60336;SDS011;46978;50.288;28.624;2023-01-23T07:04:25;36.71;;;19.23;;
60336;SDS011;46978;50.288;28.624;2023-01-23T07:05:26;41.54;;;20.94;;
60336;SDS011;46978;50.288;28.624;2023-01-23T07:06:29;24.32;;;12.49;;
60336;SDS011;46978;50.288;28.624;2023-01-23T07:07:31;26.88;;;12.16;;
60336;SDS011;46978;50.288;28.624;2023-01-23T07:08:33;27.86;;;14.23;;
60336;SDS011;46978;50.288;28.624;2023-01-23T07:09:35;30.57;;;13.78;;
60336;SDS011;46978;50.288;28.624;2023-01-23T07:10:37;25.06;;;12.21;;
60336;SDS011;46978;50.288;28.624;2023-01-23T07:11:39;27.23;;;11.20;;
60336;SDS011;46978;50.288;28.624;2023-01-23T07:12:41;24.10;;;12.27;;
60336;SDS011;46978;50.288;28.624;2023-01-23T07:13:43;26.14;;;10.81;;
60336;SDS011;46978;50.288;28.624;2023-01-23T07:14:45;26.36;;;11.54;;
60336;SDS011;46978;50.288;28.624;2023-01-23T07:15:46;26.59;;;10.66;;
60336;SDS011;46978;50.288;28.624;2023-01-23T07:16:48;20.18;;;10.04;;
60336;SDS011;46978;50.288;28.624;2023-01-23T07:17:50;24.66;;;11.54;;
60336;SDS011;46978;50.288;28.624;2023-01-23T07:18:51;25.64;;;12.79;;
60336;SDS011;46978;50.288;28.624;2023-01-23T07:19:53;23.32;;;12.11;;
60336;SDS011;46978;50.288;28.624;2023-01-23T07:20:55;23.77;;;11.85;;
60336;SDS011;46978;50.288;28.624;2023-01-23T07:21:57;28.35;;;13.11;;
60336;SDS011;46978;50.288;28.624;2023-01-23T07:22:58;23.59;;;13.17;;
60336;SDS011;46978;50.288;28.624;2023-01-23T07:24:00;26.26;;;13.10;;
60336;SDS011;46978;50.288;28.624;2023-01-23T07:25:02;26.14;;;12.07;;